Terminal Aerodrome Forecast
Issued by NWS Charleston, WV

Current Version | Previous Version | Text Only | Print | Product List | Glossary Off
Versions: 1 2 3 4 5 6 7 8 9 10 11 12 13 14 15 16 17 18 19 20 21 22 23

836
FTUS41 KRLX 271501 AAA
TAFHTS
TAF AMD
KHTS 271501Z 2715/2812 10004KT 6SM -SHRA OVC040
     FM271700 12004KT P6SM SCT040 OVC080
     FM272300 15002KT P6SM SCT080 BKN130=

USA.gov is the U.S. government's official web portal to all federal, state and local government web resources and services.